Helliar — 2EPP5 — position and weather

sailwx.info

Track history (hours):
 
Tides and Currents Weather Stations Pressure Air Temp Water Temp Dewpoint Dewpoint Depression Visibility Wind Speed Wind Dir Waves Ship Positions

Helliar

Last reported at 2017-Jun-24 23:06 UTC. Time now 2017-Jun-25 03:30 UTC.
Position N 58°52' W 002°15'.

Length 122 m; draft 5.2 m.

Type: Cargo ship. MMSI: 235087119.

Date/timePositionNaut miles runAvg speedWind from/ knotsBaromVisibWave heightAir tempDewpointWater temp
2017-Jun-24 23:06N 58°52' W 002°15'7812.0
2017-Jun-24 16:37N 57°37' W 001°42'214.4
2017-Jun-24 16:30N 57°35' W 001°42'714.2
2017-Jun-24 16:00N 57°28' W 001°42'1113.6
2017-Jun-24 15:12N 57°18' W 001°52'313.0
2017-Jun-24 14:59N 57°16' W 001°54'9 9.6
2017-Jun-24 14:00N 57°09' W 002°05'0 0.0
2017-Jun-24 13:30N 57°09' W 002°05'0 0.0
2017-Jun-24 13:00N 57°09' W 002°05'0 0.0
2017-Jun-24 12:30N 57°09' W 002°05'0 0.0
2017-Jun-24 12:00N 57°09' W 002°05'0 0.0
2017-Jun-24 11:30N 57°09' W 002°05'0 0.0
2017-Jun-24 11:00N 57°09' W 002°05'0 0.0
2017-Jun-24 10:30N 57°09' W 002°05'0 0.0
2017-Jun-24 10:00N 57°09' W 002°05'0 0.0
2017-Jun-24 09:30N 57°09' W 002°05'0 0.0
2017-Jun-24 09:00N 57°09' W 002°05'1 1.0
2017-Jun-24 08:30N 57°08' W 002°04'611.3
2017-Jun-24 08:00N 57°13' W 001°58'612.0
2017-Jun-24 07:30N 57°18' W 001°52'611.5
2017-Jun-24 07:00N 57°23' W 001°47'611.2
2017-Jun-24 06:30N 57°28' W 001°42'511.0
2017-Jun-24 06:00N 57°33' W 001°41'611.6
2017-Jun-24 05:30N 57°39' W 001°40'3 0.1
2017-Jun-22 18:30N 57°37' W 001°38'714.9
2017-Jun-22 18:00N 57°29' W 001°40'815.0
2017-Jun-22 17:30N 57°22' W 001°45'815.2
2017-Jun-22 17:00N 57°16' W 001°53'714.7
2017-Jun-22 16:30N 57°10' W 002°01'3 5.5
2017-Jun-22 15:59N 57°09' W 002°05'0 0.0
2017-Jun-22 15:29N 57°09' W 002°05'0 0.0
2017-Jun-22 14:59N 57°09' W 002°05'0 0.0
2017-Jun-22 13:59N 57°09' W 002°05'0 0.0
2017-Jun-22 13:29N 57°09' W 002°05'0 0.0
2017-Jun-22 12:59N 57°09' W 002°05'0 0.0
2017-Jun-22 12:29N 57°09' W 002°05'0 0.0
2017-Jun-22 11:59N 57°09' W 002°05'0 0.0
2017-Jun-22 11:29N 57°09' W 002°05'0 0.0
2017-Jun-22 10:59N 57°09' W 002°05'0 0.0
2017-Jun-22 10:29N 57°09' W 002°05'0 0.0
2017-Jun-22 09:59N 57°09' W 002°05'0 0.0
2017-Jun-22 09:29N 57°09' W 002°05'0 0.0
2017-Jun-22 08:59N 57°09' W 002°05'0 0.0
2017-Jun-22 08:29N 57°09' W 002°05'0 0.0
2017-Jun-22 08:00N 57°09' W 002°05'2 4.5
2017-Jun-22 07:30N 57°10' W 002°02'611.4
2017-Jun-22 07:00N 57°14' W 001°56'813.2
2017-Jun-22 06:26N 57°21' W 001°49'512.9
2017-Jun-22 06:00N 57°26' W 001°44'611.7
2017-Jun-22 05:30N 57°31' W 001°41'612.0
2017-Jun-22 05:00N 57°37' W 001°39'1 0.0
2017-Jun-20 19:28N 57°37' W 001°37'612.3
2017-Jun-20 19:01N 57°31' W 001°38'612.8
2017-Jun-20 18:31N 57°25' W 001°42'913.0
2017-Jun-20 17:49N 57°17' W 001°51'413.5
2017-Jun-20 17:30N 57°14' W 001°55'613.1
2017-Jun-20 17:01N 57°09' W 002°03'1 2.0
2017-Jun-20 16:28N 57°09' W 002°05'0 0.0
2017-Jun-20 15:58N 57°09' W 002°05'0 0.0
2017-Jun-20 15:28N 57°09' W 002°05'0 0.0
2017-Jun-20 14:58N 57°09' W 002°05'0 0.0
2017-Jun-20 14:28N 57°09' W 002°05'0 0.0
2017-Jun-20 13:28N 57°09' W 002°05'0 0.0
2017-Jun-20 12:58N 57°09' W 002°05'0 0.0
2017-Jun-20 12:28N 57°09' W 002°05'0 0.0
2017-Jun-20 11:58N 57°09' W 002°05'0 0.0
2017-Jun-20 11:28N 57°09' W 002°05'0 0.0
2017-Jun-20 10:58N 57°09' W 002°05'0 0.0
2017-Jun-20 10:28N 57°09' W 002°05'0 0.0
2017-Jun-20 09:58N 57°09' W 002°05'0 0.0
2017-Jun-20 09:28N 57°09' W 002°05'0 0.0
2017-Jun-20 08:58N 57°09' W 002°05'0 0.0
2017-Jun-20 08:28N 57°09' W 002°05'0 0.0
2017-Jun-20 07:58N 57°09' W 002°05'0 0.2
2017-Jun-20 07:30N 57°09' W 002°05'4 7.3
2017-Jun-20 07:00N 57°11' W 001°59'713.8
2017-Jun-20 06:30N 57°16' W 001°51'714.1
2017-Jun-20 06:00N 57°22' W 001°45'713.6
2017-Jun-20 05:30N 57°28' W 001°39'713.5
2017-Jun-20 05:00N 57°35' W 001°38'  
2017-Jun-17 18:38N 57°45' W 001°34'112.2
2017-Jun-17 18:30N 57°43' W 001°34'1012.1
2017-Jun-17 17:42N 57°34' W 001°36'2012.0
2017-Jun-17 16:04N 57°16' W 001°51'213.1
2017-Jun-17 15:56N 57°14' W 001°53'613.3
2017-Jun-17 15:30N 57°10' W 002°00'3 6.1
2017-Jun-17 14:58N 57°09' W 002°05'0 0.0
2017-Jun-17 13:58N 57°09' W 002°05'0 0.0
2017-Jun-17 13:28N 57°09' W 002°05'0 0.0
2017-Jun-17 12:58N 57°09' W 002°05'0 0.0
2017-Jun-17 12:28N 57°09' W 002°05'0 0.0
2017-Jun-17 11:58N 57°09' W 002°05'0 0.0
2017-Jun-17 11:28N 57°09' W 002°05'0 0.0
2017-Jun-17 10:58N 57°09' W 002°05'0 0.0
2017-Jun-17 10:28N 57°09' W 002°05'0 0.0
2017-Jun-17 09:58N 57°09' W 002°05'0 0.0
2017-Jun-17 09:28N 57°09' W 002°05'0 0.0
2017-Jun-17 08:58N 57°09' W 002°05'0 0.0
2017-Jun-17 08:28N 57°09' W 002°05'0 0.0
2017-Jun-17 07:58N 57°09' W 002°05'0 0.0
2017-Jun-17 07:28N 57°09' W 002°05'0 1.1
2017-Jun-17 07:01N 57°08' W 002°04'612.5
2017-Jun-17 06:30N 57°13' W 001°57'714.1
2017-Jun-17 06:00N 57°20' W 001°51'714.6
2017-Jun-17 05:30N 57°26' W 001°45'714.7
2017-Jun-17 05:00N 57°33' W 001°40'714.2
2017-Jun-17 04:30N 57°40' W 001°38'6 0.2
2017-Jun-15 19:41N 57°45' W 001°36'213.4
2017-Jun-15 19:30N 57°43' W 001°36'612.7
2017-Jun-15 19:00N 57°37' W 001°39'612.1
2017-Jun-15 18:30N 57°31' W 001°41'611.7
2017-Jun-15 18:00N 57°25' W 001°45'911.9
2017-Jun-15 17:17N 57°18' W 001°53'312.0
2017-Jun-15 17:00N 57°15' W 001°55'612.1
2017-Jun-15 16:30N 57°10' W 002°01'2 4.4
2017-Jun-15 15:58N 57°09' W 002°05'0 0.0
2017-Jun-15 15:28N 57°09' W 002°05'0 0.0
2017-Jun-15 14:58N 57°09' W 002°05'0 0.0
2017-Jun-15 13:58N 57°09' W 002°05'0 0.0
2017-Jun-15 13:28N 57°09' W 002°05'0 0.0
2017-Jun-15 12:58N 57°09' W 002°05'0 0.0
2017-Jun-15 12:28N 57°09' W 002°05'0 0.0
2017-Jun-15 11:59N 57°09' W 002°05'0 0.0
2017-Jun-15 11:28N 57°09' W 002°05'0 0.0
2017-Jun-15 10:58N 57°09' W 002°05'0 0.0
2017-Jun-15 10:28N 57°09' W 002°05'0 0.0
2017-Jun-15 09:58N 57°09' W 002°05'0 0.0
2017-Jun-15 09:28N 57°09' W 002°05'0 0.0
2017-Jun-15 08:58N 57°09' W 002°05'0 0.0
2017-Jun-15 08:28N 57°09' W 002°05'0 0.0
2017-Jun-15 07:58N 57°09' W 002°05'1 2.2
2017-Jun-15 07:31N 57°09' W 002°03'5 9.1
2017-Jun-15 07:01N 57°12' W 001°58'612.6
2017-Jun-15 06:30N 57°18' W 001°52'612.6
2017-Jun-15 06:00N 57°23' W 001°47'713.3
2017-Jun-15 05:31N 57°29' W 001°42'713.7
2017-Jun-15 05:00N 57°36' W 001°38'713.8
2017-Jun-15 04:28N 57°43' W 001°36'  
Track history (hours):
 
Tides and Currents Weather Stations Pressure Air Temp Water Temp Dewpoint Dewpoint Depression Visibility Wind Speed Wind Dir Waves Ship Positions

Helliar

Last reported at 2017-Jun-24 23:06 UTC. Time now 2017-Jun-25 03:30 UTC.
Position N 58°52' W 002°15'.

Length 122 m; draft 5.2 m.

Type: Cargo ship. MMSI: 235087119.

Date/timePositionNaut miles runAvg speedWind from/ knotsBaromVisibWave heightAir tempDewpointWater temp
2017-Jun-24 23:06N 58°52' W 002°15'7812.0
2017-Jun-24 16:37N 57°37' W 001°42'214.4
2017-Jun-24 16:30N 57°35' W 001°42'714.2
2017-Jun-24 16:00N 57°28' W 001°42'1113.6
2017-Jun-24 15:12N 57°18' W 001°52'313.0
2017-Jun-24 14:59N 57°16' W 001°54'9 9.6
2017-Jun-24 14:00N 57°09' W 002°05'0 0.0
2017-Jun-24 13:30N 57°09' W 002°05'0 0.0
2017-Jun-24 13:00N 57°09' W 002°05'0 0.0
2017-Jun-24 12:30N 57°09' W 002°05'0 0.0
2017-Jun-24 12:00N 57°09' W 002°05'0 0.0
2017-Jun-24 11:30N 57°09' W 002°05'0 0.0
2017-Jun-24 11:00N 57°09' W 002°05'0 0.0
2017-Jun-24 10:30N 57°09' W 002°05'0 0.0
2017-Jun-24 10:00N 57°09' W 002°05'0 0.0
2017-Jun-24 09:30N 57°09' W 002°05'0 0.0
2017-Jun-24 09:00N 57°09' W 002°05'1 1.0
2017-Jun-24 08:30N 57°08' W 002°04'611.3
2017-Jun-24 08:00N 57°13' W 001°58'612.0
2017-Jun-24 07:30N 57°18' W 001°52'611.5
2017-Jun-24 07:00N 57°23' W 001°47'611.2
2017-Jun-24 06:30N 57°28' W 001°42'511.0
2017-Jun-24 06:00N 57°33' W 001°41'611.6
2017-Jun-24 05:30N 57°39' W 001°40'3 0.1
2017-Jun-22 18:30N 57°37' W 001°38'714.9
2017-Jun-22 18:00N 57°29' W 001°40'815.0
2017-Jun-22 17:30N 57°22' W 001°45'815.2
2017-Jun-22 17:00N 57°16' W 001°53'714.7
2017-Jun-22 16:30N 57°10' W 002°01'3 5.5
2017-Jun-22 15:59N 57°09' W 002°05'0 0.0
2017-Jun-22 15:29N 57°09' W 002°05'0 0.0
2017-Jun-22 14:59N 57°09' W 002°05'0 0.0
2017-Jun-22 13:59N 57°09' W 002°05'0 0.0
2017-Jun-22 13:29N 57°09' W 002°05'0 0.0
2017-Jun-22 12:59N 57°09' W 002°05'0 0.0
2017-Jun-22 12:29N 57°09' W 002°05'0 0.0
2017-Jun-22 11:59N 57°09' W 002°05'0 0.0
2017-Jun-22 11:29N 57°09' W 002°05'0 0.0
2017-Jun-22 10:59N 57°09' W 002°05'0 0.0
2017-Jun-22 10:29N 57°09' W 002°05'0 0.0
2017-Jun-22 09:59N 57°09' W 002°05'0 0.0
2017-Jun-22 09:29N 57°09' W 002°05'0 0.0
2017-Jun-22 08:59N 57°09' W 002°05'0 0.0
2017-Jun-22 08:29N 57°09' W 002°05'0 0.0
2017-Jun-22 08:00N 57°09' W 002°05'2 4.5
2017-Jun-22 07:30N 57°10' W 002°02'611.4
2017-Jun-22 07:00N 57°14' W 001°56'813.2
2017-Jun-22 06:26N 57°21' W 001°49'512.9
2017-Jun-22 06:00N 57°26' W 001°44'611.7
2017-Jun-22 05:30N 57°31' W 001°41'612.0
2017-Jun-22 05:00N 57°37' W 001°39'1 0.0
2017-Jun-20 19:28N 57°37' W 001°37'612.3
2017-Jun-20 19:01N 57°31' W 001°38'612.8
2017-Jun-20 18:31N 57°25' W 001°42'913.0
2017-Jun-20 17:49N 57°17' W 001°51'413.5
2017-Jun-20 17:30N 57°14' W 001°55'613.1
2017-Jun-20 17:01N 57°09' W 002°03'1 2.0
2017-Jun-20 16:28N 57°09' W 002°05'0 0.0
2017-Jun-20 15:58N 57°09' W 002°05'0 0.0
2017-Jun-20 15:28N 57°09' W 002°05'0 0.0
2017-Jun-20 14:58N 57°09' W 002°05'0 0.0
2017-Jun-20 14:28N 57°09' W 002°05'0 0.0
2017-Jun-20 13:28N 57°09' W 002°05'0 0.0
2017-Jun-20 12:58N 57°09' W 002°05'0 0.0
2017-Jun-20 12:28N 57°09' W 002°05'0 0.0
2017-Jun-20 11:58N 57°09' W 002°05'0 0.0
2017-Jun-20 11:28N 57°09' W 002°05'0 0.0
2017-Jun-20 10:58N 57°09' W 002°05'0 0.0
2017-Jun-20 10:28N 57°09' W 002°05'0 0.0
2017-Jun-20 09:58N 57°09' W 002°05'0 0.0
2017-Jun-20 09:28N 57°09' W 002°05'0 0.0
2017-Jun-20 08:58N 57°09' W 002°05'0 0.0
2017-Jun-20 08:28N 57°09' W 002°05'0 0.0
2017-Jun-20 07:58N 57°09' W 002°05'0 0.2
2017-Jun-20 07:30N 57°09' W 002°05'4 7.3
2017-Jun-20 07:00N 57°11' W 001°59'713.8
2017-Jun-20 06:30N 57°16' W 001°51'714.1
2017-Jun-20 06:00N 57°22' W 001°45'713.6
2017-Jun-20 05:30N 57°28' W 001°39'713.5
2017-Jun-20 05:00N 57°35' W 001°38'  
2017-Jun-17 18:38N 57°45' W 001°34'112.2
2017-Jun-17 18:30N 57°43' W 001°34'1012.1
2017-Jun-17 17:42N 57°34' W 001°36'2012.0
2017-Jun-17 16:04N 57°16' W 001°51'213.1
2017-Jun-17 15:56N 57°14' W 001°53'613.3
2017-Jun-17 15:30N 57°10' W 002°00'3 6.1
2017-Jun-17 14:58N 57°09' W 002°05'0 0.0
2017-Jun-17 13:58N 57°09' W 002°05'0 0.0
2017-Jun-17 13:28N 57°09' W 002°05'0 0.0
2017-Jun-17 12:58N 57°09' W 002°05'0 0.0
2017-Jun-17 12:28N 57°09' W 002°05'0 0.0
2017-Jun-17 11:58N 57°09' W 002°05'0 0.0
2017-Jun-17 11:28N 57°09' W 002°05'0 0.0
2017-Jun-17 10:58N 57°09' W 002°05'0 0.0
2017-Jun-17 10:28N 57°09' W 002°05'0 0.0
2017-Jun-17 09:58N 57°09' W 002°05'0 0.0
2017-Jun-17 09:28N 57°09' W 002°05'0 0.0
2017-Jun-17 08:58N 57°09' W 002°05'0 0.0
2017-Jun-17 08:28N 57°09' W 002°05'0 0.0
2017-Jun-17 07:58N 57°09' W 002°05'0 0.0
2017-Jun-17 07:28N 57°09' W 002°05'0 1.1
2017-Jun-17 07:01N 57°08' W 002°04'612.5
2017-Jun-17 06:30N 57°13' W 001°57'714.1
2017-Jun-17 06:00N 57°20' W 001°51'714.6
2017-Jun-17 05:30N 57°26' W 001°45'714.7
2017-Jun-17 05:00N 57°33' W 001°40'714.2
2017-Jun-17 04:30N 57°40' W 001°38'6 0.2
2017-Jun-15 19:41N 57°45' W 001°36'213.4
2017-Jun-15 19:30N 57°43' W 001°36'612.7
2017-Jun-15 19:00N 57°37' W 001°39'612.1
2017-Jun-15 18:30N 57°31' W 001°41'611.7
2017-Jun-15 18:00N 57°25' W 001°45'911.9
2017-Jun-15 17:17N 57°18' W 001°53'312.0
2017-Jun-15 17:00N 57°15' W 001°55'612.1
2017-Jun-15 16:30N 57°10' W 002°01'2 4.4
2017-Jun-15 15:58N 57°09' W 002°05'0 0.0
2017-Jun-15 15:28N 57°09' W 002°05'0 0.0
2017-Jun-15 14:58N 57°09' W 002°05'0 0.0
2017-Jun-15 13:58N 57°09' W 002°05'0 0.0
2017-Jun-15 13:28N 57°09' W 002°05'0 0.0
2017-Jun-15 12:58N 57°09' W 002°05'0 0.0
2017-Jun-15 12:28N 57°09' W 002°05'0 0.0
2017-Jun-15 11:59N 57°09' W 002°05'0 0.0
2017-Jun-15 11:28N 57°09' W 002°05'0 0.0
2017-Jun-15 10:58N 57°09' W 002°05'0 0.0
2017-Jun-15 10:28N 57°09' W 002°05'0 0.0
2017-Jun-15 09:58N 57°09' W 002°05'0 0.0
2017-Jun-15 09:28N 57°09' W 002°05'0 0.0
2017-Jun-15 08:58N 57°09' W 002°05'0 0.0
2017-Jun-15 08:28N 57°09' W 002°05'0 0.0
2017-Jun-15 07:58N 57°09' W 002°05'1 2.2
2017-Jun-15 07:31N 57°09' W 002°03'5 9.1
2017-Jun-15 07:01N 57°12' W 001°58'612.6
2017-Jun-15 06:30N 57°18' W 001°52'612.6
2017-Jun-15 06:00N 57°23' W 001°47'713.3
2017-Jun-15 05:31N 57°29' W 001°42'713.7
2017-Jun-15 05:00N 57°36' W 001°38'713.8
2017-Jun-15 04:28N 57°43' W 001°36'  

Dump ship's entire track history